sensor_id;sensor_type;location;lat;lon;timestamp;pressure;altitude;pressure_sealevel;temperature;humidity
75036;BME280;64247;51.540;5.854;2023-04-10T00:01:04;101817.31;;;8.27;75.79
75036;BME280;64247;51.540;5.854;2023-04-10T00:03:06;101816.78;;;8.25;75.56
75036;BME280;64247;51.540;5.854;2023-04-10T00:05:07;101819.00;;;8.23;75.68
75036;BME280;64247;51.540;5.854;2023-04-10T00:07:08;101820.09;;;8.22;75.69
75036;BME280;64247;51.540;5.854;2023-04-10T00:09:09;101807.19;;;8.19;76.05
75036;BME280;64247;51.540;5.854;2023-04-10T00:11:10;101814.47;;;8.18;76.20
75036;BME280;64247;51.540;5.854;2023-04-10T00:13:11;101814.78;;;8.17;76.26
75036;BME280;64247;51.540;5.854;2023-04-10T00:15:12;101810.28;;;8.12;76.49
75036;BME280;64247;51.540;5.854;2023-04-10T00:17:12;101808.47;;;8.07;76.58
75036;BME280;64247;51.540;5.854;2023-04-10T00:19:14;101809.88;;;8.05;76.85
75036;BME280;64247;51.540;5.854;2023-04-10T00:21:15;101801.25;;;8.03;76.66
75036;BME280;64247;51.540;5.854;2023-04-10T00:23:16;101801.56;;;8.01;76.97
75036;BME280;64247;51.540;5.854;2023-04-10T00:25:17;101789.44;;;7.99;77.10
75036;BME280;64247;51.540;5.854;2023-04-10T00:27:18;101781.13;;;7.95;77.33
75036;BME280;64247;51.540;5.854;2023-04-10T00:29:19;101790.66;;;7.92;77.37
75036;BME280;64247;51.540;5.854;2023-04-10T00:31:20;101777.72;;;7.89;77.09
75036;BME280;64247;51.540;5.854;2023-04-10T00:33:21;101785.03;;;7.89;77.58
75036;BME280;64247;51.540;5.854;2023-04-10T00:35:22;101774.81;;;7.86;77.50
75036;BME280;64247;51.540;5.854;2023-04-10T00:37:23;101770.50;;;7.85;77.63
75036;BME280;64247;51.540;5.854;2023-04-10T00:39:24;101770.00;;;7.83;77.67
75036;BME280;64247;51.540;5.854;2023-04-10T00:41:25;101766.81;;;7.81;77.70
75036;BME280;64247;51.540;5.854;2023-04-10T00:43:26;101769.31;;;7.77;78.00
75036;BME280;64247;51.540;5.854;2023-04-10T00:45:27;101759.06;;;7.74;78.13
75036;BME280;64247;51.540;5.854;2023-04-10T00:47:28;101751.56;;;7.71;78.29
75036;BME280;64247;51.540;5.854;2023-04-10T00:49:30;101754.88;;;7.68;78.70
75036;BME280;64247;51.540;5.854;2023-04-10T00:51:31;101743.84;;;7.64;78.79
75036;BME280;64247;51.540;5.854;2023-04-10T00:53:33;101743.66;;;7.60;78.99
75036;BME280;64247;51.540;5.854;2023-04-10T00:55:34;101738.53;;;7.59;79.09
75036;BME280;64247;51.540;5.854;2023-04-10T00:57:34;101741.84;;;7.56;79.21
75036;BME280;64247;51.540;5.854;2023-04-10T00:59:36;101735.63;;;7.55;79.05
75036;BME280;64247;51.540;5.854;2023-04-10T01:01:38;101735.94;;;7.54;79.40
75036;BME280;64247;51.540;5.854;2023-04-10T01:03:40;101730.22;;;7.55;79.14
75036;BME280;64247;51.540;5.854;2023-04-10T01:06:25;101731.63;;;7.53;79.18
75036;BME280;64247;51.540;5.854;2023-04-10T01:09:09;101731.63;;;7.53;79.29
75036;BME280;64247;51.540;5.854;2023-04-10T01:11:54;101729.22;;;7.51;79.66
75036;BME280;64247;51.540;5.854;2023-04-10T01:14:45;101737.91;;;7.48;79.46
75036;BME280;64247;51.540;5.854;2023-04-10T01:17:06;101731.72;;;7.48;79.32
75036;BME280;64247;51.540;5.854;2023-04-10T01:22:09;101732.41;;;7.39;79.72
75036;BME280;64247;51.540;5.854;2023-04-10T01:25:29;101727.09;;;7.34;79.97
75036;BME280;64247;51.540;5.854;2023-04-10T01:30:49;101727.78;;;7.26;80.36
75036;BME280;64247;51.540;5.854;2023-04-10T01:32:55;101728.88;;;7.25;80.51
75036;BME280;64247;51.540;5.854;2023-04-10T01:35:05;101727.56;;;7.22;80.55
75036;BME280;64247;51.540;5.854;2023-04-10T01:37:12;101714.13;;;7.17;80.81
75036;BME280;64247;51.540;5.854;2023-04-10T01:39:18;101726.06;;;7.16;80.97
75036;BME280;64247;51.540;5.854;2023-04-10T01:41:21;101717.75;;;7.12;81.14
75036;BME280;64247;51.540;5.854;2023-04-10T01:43:25;101725.34;;;7.10;81.31
75036;BME280;64247;51.540;5.854;2023-04-10T01:45:27;101720.50;;;7.07;81.21
75036;BME280;64247;51.540;5.854;2023-04-10T01:47:28;101717.28;;;7.05;81.34
75036;BME280;64247;51.540;5.854;2023-04-10T01:49:30;101724.59;;;7.05;81.48
75036;BME280;64247;51.540;5.854;2023-04-10T01:51:37;101719.00;;;7.01;81.37
75036;BME280;64247;51.540;5.854;2023-04-10T01:53:43;101716.28;;;7.01;81.51
75036;BME280;64247;51.540;5.854;2023-04-10T01:55:47;101720.59;;;7.02;81.66
75036;BME280;64247;51.540;5.854;2023-04-10T01:57:50;101723.31;;;7.02;81.51
75036;BME280;64247;51.540;5.854;2023-04-10T01:59:53;101714.69;;;7.00;81.58
75036;BME280;64247;51.540;5.854;2023-04-10T02:01:57;101700.97;;;6.96;81.95
75036;BME280;64247;51.540;5.854;2023-04-10T02:04:00;101713.69;;;6.96;81.72
75036;BME280;64247;51.540;5.854;2023-04-10T02:06:26;101709.06;;;6.96;81.83
75036;BME280;64247;51.540;5.854;2023-04-10T02:08:40;101703.97;;;6.95;81.97
75036;BME280;64247;51.540;5.854;2023-04-10T02:10:55;101706.69;;;6.95;82.13
75036;BME280;64247;51.540;5.854;2023-04-10T02:13:05;101694.56;;;6.92;81.59
75036;BME280;64247;51.540;5.854;2023-04-10T02:15:10;101697.06;;;6.89;81.93
75036;BME280;64247;51.540;5.854;2023-04-10T02:17:13;101695.47;;;6.88;82.33
75036;BME280;64247;51.540;5.854;2023-04-10T02:19:24;101684.94;;;6.86;81.84
75036;BME280;64247;51.540;5.854;2023-04-10T02:21:27;101693.03;;;6.86;81.84
75036;BME280;64247;51.540;5.854;2023-04-10T02:23:28;101689.53;;;6.86;82.03
75036;BME280;64247;51.540;5.854;2023-04-10T02:25:33;101685.25;;;6.85;81.99
75036;BME280;64247;51.540;5.854;2023-04-10T02:27:35;101683.94;;;6.82;82.14
75036;BME280;64247;51.540;5.854;2023-04-10T02:29:37;101678.31;;;6.78;82.81
75036;BME280;64247;51.540;5.854;2023-04-10T02:31:41;101681.59;;;6.75;82.69
75036;BME280;64247;51.540;5.854;2023-04-10T02:33:42;101678.13;;;6.75;82.85
75036;BME280;64247;51.540;5.854;2023-04-10T02:35:45;101675.09;;;6.76;82.66
75036;BME280;64247;51.540;5.854;2023-04-10T02:37:46;101673.03;;;6.73;82.81
75036;BME280;64247;51.540;5.854;2023-04-10T02:39:48;101674.09;;;6.72;83.13
75036;BME280;64247;51.540;5.854;2023-04-10T02:41:49;101671.41;;;6.72;82.73
75036;BME280;64247;51.540;5.854;2023-04-10T02:43:49;101668.19;;;6.70;83.47
75036;BME280;64247;51.540;5.854;2023-04-10T02:45:58;101666.91;;;6.68;83.38
75036;BME280;64247;51.540;5.854;2023-04-10T02:48:04;101668.50;;;6.69;83.36
75036;BME280;64247;51.540;5.854;2023-04-10T02:50:06;101662.81;;;6.70;83.06
75036;BME280;64247;51.540;5.854;2023-04-10T02:52:10;101656.81;;;6.73;82.82
75036;BME280;64247;51.540;5.854;2023-04-10T02:54:11;101663.31;;;6.72;82.96
75036;BME280;64247;51.540;5.854;2023-04-10T02:56:14;101667.09;;;6.71;83.03
75036;BME280;64247;51.540;5.854;2023-04-10T02:58:15;101657.91;;;6.72;82.64
75036;BME280;64247;51.540;5.854;2023-04-10T03:00:17;101659.53;;;6.73;82.95
75036;BME280;64247;51.540;5.854;2023-04-10T03:02:38;101654.13;;;6.73;82.65
75036;BME280;64247;51.540;5.854;2023-04-10T03:04:47;101656.00;;;6.73;82.55
75036;BME280;64247;51.540;5.854;2023-04-10T03:06:48;101649.81;;;6.72;82.96
75036;BME280;64247;51.540;5.854;2023-04-10T03:08:49;101642.72;;;6.76;82.13
75036;BME280;64247;51.540;5.854;2023-04-10T03:10:50;101642.72;;;6.76;82.34
75036;BME280;64247;51.540;5.854;2023-04-10T03:12:51;101647.03;;;6.77;82.26
75036;BME280;64247;51.540;5.854;2023-04-10T03:14:52;101653.53;;;6.76;82.53
75036;BME280;64247;51.540;5.854;2023-04-10T03:16:53;101656.75;;;6.78;82.02
75036;BME280;64247;51.540;5.854;2023-04-10T03:18:55;101661.63;;;6.76;82.41
75036;BME280;64247;51.540;5.854;2023-04-10T03:20:56;101665.13;;;6.77;82.03
75036;BME280;64247;51.540;5.854;2023-04-10T03:22:58;101666.22;;;6.76;82.25
75036;BME280;64247;51.540;5.854;2023-04-10T03:25:01;101654.34;;;6.77;82.18
75036;BME280;64247;51.540;5.854;2023-04-10T03:27:03;101659.22;;;6.75;82.18
75036;BME280;64247;51.540;5.854;2023-04-10T03:29:04;101660.00;;;6.75;82.26
75036;BME280;64247;51.540;5.854;2023-04-10T03:31:05;101665.94;;;6.77;81.92
75036;BME280;64247;51.540;5.854;2023-04-10T03:33:08;101664.63;;;6.75;82.32
75036;BME280;64247;51.540;5.854;2023-04-10T03:35:10;101665.50;;;6.70;82.32
75036;BME280;64247;51.540;5.854;2023-04-10T03:37:11;101657.72;;;6.69;82.45
75036;BME280;64247;51.540;5.854;2023-04-10T03:39:12;101658.28;;;6.65;82.74
75036;BME280;64247;51.540;5.854;2023-04-10T03:41:13;101657.75;;;6.63;82.53
75036;BME280;64247;51.540;5.854;2023-04-10T03:43:14;101655.69;;;6.60;82.83
75036;BME280;64247;51.540;5.854;2023-04-10T03:45:15;101660.03;;;6.56;83.30
75036;BME280;64247;51.540;5.854;2023-04-10T03:47:16;101654.44;;;6.53;83.04
75036;BME280;64247;51.540;5.854;2023-04-10T03:49:22;101652.34;;;6.49;83.34
75036;BME280;64247;51.540;5.854;2023-04-10T03:51:25;101642.94;;;6.47;83.20
75036;BME280;64247;51.540;5.854;2023-04-10T03:53:26;101642.94;;;6.47;83.64
75036;BME280;64247;51.540;5.854;2023-04-10T03:55:28;101645.41;;;6.43;83.29
75036;BME280;64247;51.540;5.854;2023-04-10T03:57:29;101630.31;;;6.42;83.59
75036;BME280;64247;51.540;5.854;2023-04-10T03:59:36;101630.31;;;6.42;83.47
75036;BME280;64247;51.540;5.854;2023-04-10T04:01:37;101633.28;;;6.41;83.66
75036;BME280;64247;51.540;5.854;2023-04-10T04:03:43;101628.50;;;6.38;83.26
75036;BME280;64247;51.540;5.854;2023-04-10T04:06:02;101621.00;;;6.34;84.02
75036;BME280;64247;51.540;5.854;2023-04-10T04:08:17;101628.56;;;6.32;83.90
75036;BME280;64247;51.540;5.854;2023-04-10T04:10:37;101630.78;;;6.30;83.93
75036;BME280;64247;51.540;5.854;2023-04-10T04:12:52;101620.84;;;6.26;84.02
75036;BME280;64247;51.540;5.854;2023-04-10T04:15:10;101625.22;;;6.22;84.76
75036;BME280;64247;51.540;5.854;2023-04-10T04:17:37;101622.28;;;6.18;84.57
75036;BME280;64247;51.540;5.854;2023-04-10T04:20:01;101625.88;;;6.13;85.01
75036;BME280;64247;51.540;5.854;2023-04-10T04:22:28;101610.81;;;6.12;84.78
75036;BME280;64247;51.540;5.854;2023-04-10T04:24:42;101614.59;;;6.11;85.00
75036;BME280;64247;51.540;5.854;2023-04-10T04:26:56;101615.38;;;6.12;85.12
75036;BME280;64247;51.540;5.854;2023-04-10T04:29:29;101619.97;;;6.11;85.25
75036;BME280;64247;51.540;5.854;2023-04-10T04:31:45;101616.19;;;6.12;85.04
75036;BME280;64247;51.540;5.854;2023-04-10T04:34:08;101614.28;;;6.13;84.91
75036;BME280;64247;51.540;5.854;2023-04-10T04:36:28;101610.00;;;6.12;84.53
75036;BME280;64247;51.540;5.854;2023-04-10T04:38:54;101606.50;;;6.11;84.67
75036;BME280;64247;51.540;5.854;2023-04-10T04:41:13;101605.69;;;6.11;84.82
75036;BME280;64247;51.540;5.854;2023-04-10T04:43:35;101603.00;;;6.11;85.09
75036;BME280;64247;51.540;5.854;2023-04-10T04:45:49;101600.81;;;6.13;85.04
75036;BME280;64247;51.540;5.854;2023-04-10T04:48:22;101613.19;;;6.14;84.56
75036;BME280;64247;51.540;5.854;2023-04-10T04:50:41;101606.41;;;6.16;84.75
75036;BME280;64247;51.540;5.854;2023-04-10T04:53:01;101602.34;;;6.19;84.72
75036;BME280;64247;51.540;5.854;2023-04-10T04:55:20;101598.56;;;6.20;84.31
75036;BME280;64247;51.540;5.854;2023-04-10T04:57:35;101610.94;;;6.21;84.04
75036;BME280;64247;51.540;5.854;2023-04-10T04:59:40;101605.56;;;6.21;83.78
75036;BME280;64247;51.540;5.854;2023-04-10T05:02:01;101599.84;;;6.23;83.84
75036;BME280;64247;51.540;5.854;2023-04-10T05:04:18;101604.69;;;6.26;83.77
75036;BME280;64247;51.540;5.854;2023-04-10T05:06:43;101596.81;;;6.29;83.54
75036;BME280;64247;51.540;5.854;2023-04-10T05:09:04;101590.03;;;6.32;84.02
75036;BME280;64247;51.540;5.854;2023-04-10T05:11:25;101595.94;;;6.34;83.87
75036;BME280;64247;51.540;5.854;2023-04-10T05:13:49;101591.31;;;6.34;83.62
75036;BME280;64247;51.540;5.854;2023-04-10T05:16:07;101584.53;;;6.37;83.18
75036;BME280;64247;51.540;5.854;2023-04-10T05:18:13;101586.66;;;6.40;83.29
75036;BME280;64247;51.540;5.854;2023-04-10T05:20:36;101584.47;;;6.42;83.01
75036;BME280;64247;51.540;5.854;2023-04-10T05:22:57;101575.78;;;6.45;82.67
75036;BME280;64247;51.540;5.854;2023-04-10T05:25:17;101583.00;;;6.50;82.55
75036;BME280;64247;51.540;5.854;2023-04-10T05:27:50;101572.34;;;6.59;81.83
75036;BME280;64247;51.540;5.854;2023-04-10T05:30:17;101578.66;;;6.68;81.92
75036;BME280;64247;51.540;5.854;2023-04-10T05:32:41;101581.75;;;6.75;81.59
75036;BME280;64247;51.540;5.854;2023-04-10T05:35:01;101580.28;;;6.83;81.03
75036;BME280;64247;51.540;5.854;2023-04-10T05:37:19;101574.22;;;6.91;80.87
75036;BME280;64247;51.540;5.854;2023-04-10T05:39:38;101568.91;;;7.00;80.27
75036;BME280;64247;51.540;5.854;2023-04-10T05:41:59;101582.50;;;7.09;79.68
75036;BME280;64247;51.540;5.854;2023-04-10T05:44:18;101581.53;;;7.19;79.17
75036;BME280;64247;51.540;5.854;2023-04-10T05:46:52;101571.34;;;7.29;78.82
75036;BME280;64247;51.540;5.854;2023-04-10T05:49:15;101573.53;;;7.41;78.23
75036;BME280;64247;51.540;5.854;2023-04-10T05:51:35;101555.53;;;7.51;77.39
75036;BME280;64247;51.540;5.854;2023-04-10T05:53:50;101557.22;;;7.60;76.97
75036;BME280;64247;51.540;5.854;2023-04-10T05:56:17;101572.59;;;7.74;76.79
75036;BME280;64247;51.540;5.854;2023-04-10T05:58:39;101565.88;;;7.85;76.21
75036;BME280;64247;51.540;5.854;2023-04-10T06:01:08;101570.44;;;7.99;75.40
75036;BME280;64247;51.540;5.854;2023-04-10T06:03:20;101575.91;;;8.07;74.90
75036;BME280;64247;51.540;5.854;2023-04-10T06:05:29;101572.97;;;8.18;74.95
75036;BME280;64247;51.540;5.854;2023-04-10T06:07:34;101566.84;;;8.26;73.93
75036;BME280;64247;51.540;5.854;2023-04-10T06:09:35;101569.09;;;8.33;73.85
75036;BME280;64247;51.540;5.854;2023-04-10T06:11:39;101565.97;;;8.39;73.45
75036;BME280;64247;51.540;5.854;2023-04-10T06:13:40;101571.78;;;8.47;73.04
75036;BME280;64247;51.540;5.854;2023-04-10T06:15:41;101576.44;;;8.55;73.34
75036;BME280;64247;51.540;5.854;2023-04-10T06:17:42;101575.69;;;8.63;72.78
75036;BME280;64247;51.540;5.854;2023-04-10T06:19:43;101569.22;;;8.73;71.86
75036;BME280;64247;51.540;5.854;2023-04-10T06:21:44;101580.09;;;8.82;71.90
75036;BME280;64247;51.540;5.854;2023-04-10T06:23:46;101569.31;;;8.91;72.00
75036;BME280;64247;51.540;5.854;2023-04-10T06:25:47;101567.28;;;8.96;70.87
75036;BME280;64247;51.540;5.854;2023-04-10T06:27:48;101566.19;;;9.06;70.79
75036;BME280;64247;51.540;5.854;2023-04-10T06:29:48;101564.94;;;9.12;70.59
75036;BME280;64247;51.540;5.854;2023-04-10T06:31:54;101566.72;;;9.17;70.06
75036;BME280;64247;51.540;5.854;2023-04-10T06:33:55;101562.13;;;9.26;70.10
75036;BME280;64247;51.540;5.854;2023-04-10T06:35:57;101565.34;;;9.37;70.38
75036;BME280;64247;51.540;5.854;2023-04-10T06:37:58;101561.22;;;9.48;70.13
75036;BME280;64247;51.540;5.854;2023-04-10T06:40:04;101555.84;;;9.57;69.71
75036;BME280;64247;51.540;5.854;2023-04-10T06:42:24;101547.53;;;9.71;69.32
75036;BME280;64247;51.540;5.854;2023-04-10T06:44:33;101540.06;;;9.86;68.96
75036;BME280;64247;51.540;5.854;2023-04-10T06:46:34;101549.16;;;9.98;68.46
75036;BME280;64247;51.540;5.854;2023-04-10T06:48:35;101549.34;;;10.11;68.02
75036;BME280;64247;51.540;5.854;2023-04-10T06:50:36;101542.59;;;10.26;67.80
75036;BME280;64247;51.540;5.854;2023-04-10T06:52:37;101547.88;;;10.40;67.11
75036;BME280;64247;51.540;5.854;2023-04-10T06:54:38;101531.44;;;10.45;66.18
75036;BME280;64247;51.540;5.854;2023-04-10T06:56:39;101537.97;;;10.53;65.41
75036;BME280;64247;51.540;5.854;2023-04-10T06:58:40;101529.47;;;10.63;66.50
75036;BME280;64247;51.540;5.854;2023-04-10T07:00:41;101532.31;;;10.75;64.65
75036;BME280;64247;51.540;5.854;2023-04-10T07:02:41;101534.50;;;10.82;64.15
75036;BME280;64247;51.540;5.854;2023-04-10T07:04:42;101524.75;;;10.81;64.56
75036;BME280;64247;51.540;5.854;2023-04-10T07:06:43;101515.81;;;10.81;63.28
75036;BME280;64247;51.540;5.854;2023-04-10T07:08:44;101504.31;;;10.84;63.48
75036;BME280;64247;51.540;5.854;2023-04-10T07:10:45;101507.81;;;10.84;63.97
75036;BME280;64247;51.540;5.854;2023-04-10T07:12:46;101507.34;;;10.82;63.91
75036;BME280;64247;51.540;5.854;2023-04-10T07:14:47;101492.78;;;10.87;63.24
75036;BME280;64247;51.540;5.854;2023-04-10T07:16:48;101497.88;;;10.88;63.48
75036;BME280;64247;51.540;5.854;2023-04-10T07:18:49;101494.34;;;10.97;63.83
75036;BME280;64247;51.540;5.854;2023-04-10T07:20:50;101494.47;;;11.00;63.41
75036;BME280;64247;51.540;5.854;2023-04-10T07:22:51;101485.34;;;11.05;63.41
75036;BME280;64247;51.540;5.854;2023-04-10T07:24:52;101482.78;;;11.08;62.93
75036;BME280;64247;51.540;5.854;2023-04-10T07:26:53;101474.75;;;11.12;63.37
75036;BME280;64247;51.540;5.854;2023-04-10T07:28:54;101484.50;;;11.13;63.33
75036;BME280;64247;51.540;5.854;2023-04-10T07:30:55;101476.97;;;11.19;63.32
75036;BME280;64247;51.540;5.854;2023-04-10T07:32:55;101476.44;;;11.26;63.31
75036;BME280;64247;51.540;5.854;2023-04-10T07:34:56;101477.50;;;11.33;63.17
75036;BME280;64247;51.540;5.854;2023-04-10T07:36:57;101472.34;;;11.40;63.06
75036;BME280;64247;51.540;5.854;2023-04-10T07:38:58;101466.38;;;11.47;61.99
75036;BME280;64247;51.540;5.854;2023-04-10T07:40:59;101471.13;;;11.50;62.67
75036;BME280;64247;51.540;5.854;2023-04-10T07:43:00;101463.59;;;11.56;61.46
75036;BME280;64247;51.540;5.854;2023-04-10T07:45:01;101464.97;;;11.62;61.74
75036;BME280;64247;51.540;5.854;2023-04-10T07:47:02;101455.94;;;11.70;61.21
75036;BME280;64247;51.540;5.854;2023-04-10T07:49:03;101452.00;;;11.80;60.69
75036;BME280;64247;51.540;5.854;2023-04-10T07:51:04;101448.22;;;11.94;60.65
75036;BME280;64247;51.540;5.854;2023-04-10T07:53:08;101453.59;;;12.02;59.91
75036;BME280;64247;51.540;5.854;2023-04-10T07:55:09;101451.81;;;12.07;59.63
75036;BME280;64247;51.540;5.854;2023-04-10T07:57:10;101447.28;;;12.11;59.03
75036;BME280;64247;51.540;5.854;2023-04-10T07:59:11;101451.13;;;12.10;58.84
75036;BME280;64247;51.540;5.854;2023-04-10T08:01:12;101446.41;;;12.19;59.29
75036;BME280;64247;51.540;5.854;2023-04-10T08:03:14;101437.47;;;12.31;57.89
75036;BME280;64247;51.540;5.854;2023-04-10T08:05:15;101432.03;;;12.43;58.11
75036;BME280;64247;51.540;5.854;2023-04-10T08:07:18;101435.66;;;12.60;57.23
75036;BME280;64247;51.540;5.854;2023-04-10T08:09:21;101434.63;;;12.77;57.83
75036;BME280;64247;51.540;5.854;2023-04-10T08:11:27;101432.34;;;12.91;56.90
75036;BME280;64247;51.540;5.854;2023-04-10T08:13:34;101434.03;;;13.21;56.06
75036;BME280;64247;51.540;5.854;2023-04-10T08:15:35;101419.63;;;13.49;55.02
75036;BME280;64247;51.540;5.854;2023-04-10T08:17:36;101417.53;;;13.70;54.09
75036;BME280;64247;51.540;5.854;2023-04-10T08:19:37;101410.28;;;13.90;54.23
75036;BME280;64247;51.540;5.854;2023-04-10T08:21:38;101406.97;;;14.13;53.23
75036;BME280;64247;51.540;5.854;2023-04-10T08:23:39;101404.03;;;14.38;52.99
75036;BME280;64247;51.540;5.854;2023-04-10T08:25:40;101396.78;;;14.62;51.66
75036;BME280;64247;51.540;5.854;2023-04-10T08:27:41;101403.94;;;14.66;51.50
75036;BME280;64247;51.540;5.854;2023-04-10T08:29:42;101407.38;;;14.63;51.60
75036;BME280;64247;51.540;5.854;2023-04-10T08:31:43;101406.41;;;14.55;50.83
75036;BME280;64247;51.540;5.854;2023-04-10T08:33:44;101402.09;;;14.54;50.81
75036;BME280;64247;51.540;5.854;2023-04-10T08:35:48;101397.94;;;14.61;51.45
75036;BME280;64247;51.540;5.854;2023-04-10T08:37:48;101398.00;;;14.64;51.10
75036;BME280;64247;51.540;5.854;2023-04-10T08:39:49;101394.25;;;14.69;49.95
75036;BME280;64247;51.540;5.854;2023-04-10T08:41:51;101404.75;;;14.67;50.96
75036;BME280;64247;51.540;5.854;2023-04-10T08:43:52;101398.81;;;14.65;51.43
75036;BME280;64247;51.540;5.854;2023-04-10T08:45:53;101401.53;;;14.81;52.02
75036;BME280;64247;51.540;5.854;2023-04-10T08:47:56;101408.81;;;14.93;50.48
75036;BME280;64247;51.540;5.854;2023-04-10T08:50:05;101399.84;;;14.92;50.47
75036;BME280;64247;51.540;5.854;2023-04-10T08:52:14;101401.34;;;14.90;51.33
75036;BME280;64247;51.540;5.854;2023-04-10T08:54:24;101401.59;;;15.00;51.43
75036;BME280;64247;51.540;5.854;2023-04-10T08:56:29;101392.72;;;15.07;49.60
75036;BME280;64247;51.540;5.854;2023-04-10T08:58:33;101390.94;;;15.15;48.39
75036;BME280;64247;51.540;5.854;2023-04-10T09:00:35;101385.69;;;15.26;48.79
75036;BME280;64247;51.540;5.854;2023-04-10T09:02:40;101379.50;;;15.29;48.28
75036;BME280;64247;51.540;5.854;2023-04-10T09:04:47;101376.13;;;15.16;47.71
75036;BME280;64247;51.540;5.854;2023-04-10T09:06:54;101382.22;;;15.09;48.23
75036;BME280;64247;51.540;5.854;2023-04-10T09:08:55;101381.00;;;15.07;48.75
75036;BME280;64247;51.540;5.854;2023-04-10T09:10:56;101382.59;;;15.08;49.53
75036;BME280;64247;51.540;5.854;2023-04-10T09:12:57;101380.72;;;14.92;49.64
75036;BME280;64247;51.540;5.854;2023-04-10T09:14:58;101374.75;;;15.06;50.12
75036;BME280;64247;51.540;5.854;2023-04-10T09:17:18;101372.53;;;15.31;48.82
75036;BME280;64247;51.540;5.854;2023-04-10T09:19:32;101375.34;;;15.35;49.26
75036;BME280;64247;51.540;5.854;2023-04-10T09:21:33;101382.59;;;15.47;48.49
75036;BME280;64247;51.540;5.854;2023-04-10T09:23:34;101360.72;;;15.47;49.04
75036;BME280;64247;51.540;5.854;2023-04-10T09:25:38;101362.72;;;15.50;48.50
75036;BME280;64247;51.540;5.854;2023-04-10T09:27:39;101361.81;;;15.42;47.96
75036;BME280;64247;51.540;5.854;2023-04-10T09:29:43;101358.44;;;15.29;48.46
75036;BME280;64247;51.540;5.854;2023-04-10T09:31:48;101359.44;;;15.21;49.03
75036;BME280;64247;51.540;5.854;2023-04-10T09:34:26;101359.00;;;15.19;48.86
75036;BME280;64247;51.540;5.854;2023-04-10T09:36:26;101359.50;;;15.25;50.28
75036;BME280;64247;51.540;5.854;2023-04-10T09:38:27;101336.09;;;15.27;49.33
75036;BME280;64247;51.540;5.854;2023-04-10T09:40:29;101343.16;;;15.28;50.24
75036;BME280;64247;51.540;5.854;2023-04-10T09:42:32;101351.13;;;15.37;49.64
75036;BME280;64247;51.540;5.854;2023-04-10T09:44:37;101336.59;;;15.33;49.04
75036;BME280;64247;51.540;5.854;2023-04-10T09:46:40;101326.63;;;15.21;49.90
75036;BME280;64247;51.540;5.854;2023-04-10T09:48:53;101324.53;;;15.34;50.78
75036;BME280;64247;51.540;5.854;2023-04-10T09:50:56;101314.22;;;15.47;50.17
75036;BME280;64247;51.540;5.854;2023-04-10T09:52:57;101318.16;;;15.49;49.65
75036;BME280;64247;51.540;5.854;2023-04-10T09:55:02;101318.03;;;15.42;49.00
75036;BME280;64247;51.540;5.854;2023-04-10T09:57:05;101309.81;;;15.42;51.10
75036;BME280;64247;51.540;5.854;2023-04-10T09:59:07;101305.13;;;15.43;49.64
75036;BME280;64247;51.540;5.854;2023-04-10T10:01:11;101298.44;;;15.40;50.42
75036;BME280;64247;51.540;5.854;2023-04-10T10:03:17;101297.66;;;15.40;50.08
75036;BME280;64247;51.540;5.854;2023-04-10T10:05:20;101296.16;;;15.42;50.17
75036;BME280;64247;51.540;5.854;2023-04-10T10:07:23;101288.28;;;15.41;50.17
75036;BME280;64247;51.540;5.854;2023-04-10T10:09:24;101281.66;;;15.42;51.49
75036;BME280;64247;51.540;5.854;2023-04-10T10:11:25;101277.06;;;15.46;49.98
75036;BME280;64247;51.540;5.854;2023-04-10T10:13:36;101284.47;;;15.45;50.70
75036;BME280;64247;51.540;5.854;2023-04-10T10:16:08;101267.38;;;15.52;50.79
75036;BME280;64247;51.540;5.854;2023-04-10T10:21:08;101271.41;;;15.58;51.05
75036;BME280;64247;51.540;5.854;2023-04-10T10:23:09;101272.31;;;15.66;51.76
75036;BME280;64247;51.540;5.854;2023-04-10T10:25:12;101269.00;;;15.80;50.35
75036;BME280;64247;51.540;5.854;2023-04-10T10:27:13;101267.59;;;15.86;49.85
75036;BME280;64247;51.540;5.854;2023-04-10T10:29:18;101273.13;;;15.90;51.03
75036;BME280;64247;51.540;5.854;2023-04-10T10:31:22;101269.81;;;16.04;50.67
75036;BME280;64247;51.540;5.854;2023-04-10T10:33:26;101255.34;;;16.03;50.23
75036;BME280;64247;51.540;5.854;2023-04-10T10:35:36;101248.34;;;16.06;50.27
75036;BME280;64247;51.540;5.854;2023-04-10T10:37:38;101250.69;;;16.07;50.32
75036;BME280;64247;51.540;5.854;2023-04-10T10:40:13;101251.56;;;16.11;50.39
75036;BME280;64247;51.540;5.854;2023-04-10T10:45:29;101228.91;;;16.45;50.22
75036;BME280;64247;51.540;5.854;2023-04-10T10:47:53;101211.84;;;16.59;49.31
75036;BME280;64247;51.540;5.854;2023-04-10T10:49:57;101212.03;;;16.73;50.05
75036;BME280;64247;51.540;5.854;2023-04-10T10:52:02;101212.22;;;16.91;48.86
75036;BME280;64247;51.540;5.854;2023-04-10T10:56:50;101215.81;;;17.37;48.27
75036;BME280;64247;51.540;5.854;2023-04-10T10:58:52;101217.09;;;17.47;48.81
75036;BME280;64247;51.540;5.854;2023-04-10T11:01:18;101213.50;;;17.39;48.86
75036;BME280;64247;51.540;5.854;2023-04-10T11:03:40;101203.34;;;17.47;47.58
75036;BME280;64247;51.540;5.854;2023-04-10T11:08:16;101197.56;;;17.59;46.21
75036;BME280;64247;51.540;5.854;2023-04-10T11:10:58;101193.59;;;17.53;45.70
75036;BME280;64247;51.540;5.854;2023-04-10T11:13:16;101196.13;;;17.76;44.79
75036;BME280;64247;51.540;5.854;2023-04-10T11:15:21;101189.13;;;17.82;44.53
75036;BME280;64247;51.540;5.854;2023-04-10T11:17:49;101173.13;;;17.95;43.78
75036;BME280;64247;51.540;5.854;2023-04-10T11:20:00;101170.47;;;18.13;43.83
75036;BME280;64247;51.540;5.854;2023-04-10T11:22:05;101166.50;;;18.03;44.11
75036;BME280;64247;51.540;5.854;2023-04-10T11:24:07;101164.22;;;18.20;44.19
75036;BME280;64247;51.540;5.854;2023-04-10T11:26:08;101179.22;;;18.37;43.29
75036;BME280;64247;51.540;5.854;2023-04-10T11:30:54;101165.50;;;18.44;42.70